sensor_id;sensor_type;location;lat;lon;timestamp;P1;durP1;ratioP1;P2;durP2;ratioP2
37609;SDS011;23457;51.966;8.230;2022-07-01T00:00:45;8.23;;;5.38;;
37609;SDS011;23457;51.966;8.230;2022-07-01T00:03:12;6.90;;;5.10;;
37609;SDS011;23457;51.966;8.230;2022-07-01T00:05:38;7.82;;;4.90;;
37609;SDS011;23457;51.966;8.230;2022-07-01T00:08:05;10.38;;;5.47;;
37609;SDS011;23457;51.966;8.230;2022-07-01T00:10:31;8.20;;;5.40;;
37609;SDS011;23457;51.966;8.230;2022-07-01T00:12:58;6.63;;;4.78;;
37609;SDS011;23457;51.966;8.230;2022-07-01T00:15:25;10.65;;;4.63;;
37609;SDS011;23457;51.966;8.230;2022-07-01T00:17:51;11.13;;;4.60;;
37609;SDS011;23457;51.966;8.230;2022-07-01T00:20:18;10.48;;;5.10;;
37609;SDS011;23457;51.966;8.230;2022-07-01T00:22:45;7.53;;;4.95;;
37609;SDS011;23457;51.966;8.230;2022-07-01T00:25:11;7.28;;;5.00;;
37609;SDS011;23457;51.966;8.230;2022-07-01T00:27:38;8.30;;;4.65;;
37609;SDS011;23457;51.966;8.230;2022-07-01T00:30:07;7.40;;;4.90;;
37609;SDS011;23457;51.966;8.230;2022-07-01T00:32:35;5.88;;;4.82;;
37609;SDS011;23457;51.966;8.230;2022-07-01T00:35:02;11.38;;;5.05;;
37609;SDS011;23457;51.966;8.230;2022-07-01T00:37:29;6.85;;;3.90;;
37609;SDS011;23457;51.966;8.230;2022-07-01T00:39:56;7.07;;;4.43;;
37609;SDS011;23457;51.966;8.230;2022-07-01T00:42:22;7.35;;;4.65;;
37609;SDS011;23457;51.966;8.230;2022-07-01T00:44:49;10.55;;;5.82;;
37609;SDS011;23457;51.966;8.230;2022-07-01T00:47:16;10.18;;;6.20;;
37609;SDS011;23457;51.966;8.230;2022-07-01T00:49:42;7.40;;;5.47;;
37609;SDS011;23457;51.966;8.230;2022-07-01T00:52:09;9.73;;;6.30;;
37609;SDS011;23457;51.966;8.230;2022-07-01T00:54:36;10.68;;;6.05;;
37609;SDS011;23457;51.966;8.230;2022-07-01T00:57:07;6.75;;;5.78;;
37609;SDS011;23457;51.966;8.230;2022-07-01T00:59:38;6.95;;;5.10;;
37609;SDS011;23457;51.966;8.230;2022-07-01T01:02:07;8.00;;;4.97;;
37609;SDS011;23457;51.966;8.230;2022-07-01T01:04:34;6.65;;;5.10;;
37609;SDS011;23457;51.966;8.230;2022-07-01T01:07:01;10.00;;;5.13;;
37609;SDS011;23457;51.966;8.230;2022-07-01T01:09:28;6.32;;;4.28;;
37609;SDS011;23457;51.966;8.230;2022-07-01T01:12:00;5.57;;;4.43;;
37609;SDS011;23457;51.966;8.230;2022-07-01T01:14:27;6.82;;;4.47;;
37609;SDS011;23457;51.966;8.230;2022-07-01T01:16:54;7.53;;;3.92;;
37609;SDS011;23457;51.966;8.230;2022-07-01T01:19:20;7.90;;;4.05;;
37609;SDS011;23457;51.966;8.230;2022-07-01T01:21:47;7.18;;;4.00;;
37609;SDS011;23457;51.966;8.230;2022-07-01T01:24:13;6.60;;;3.95;;
37609;SDS011;23457;51.966;8.230;2022-07-01T01:26:40;5.82;;;4.07;;
37609;SDS011;23457;51.966;8.230;2022-07-01T01:29:06;7.30;;;3.90;;
37609;SDS011;23457;51.966;8.230;2022-07-01T01:31:34;3.95;;;3.47;;
37609;SDS011;23457;51.966;8.230;2022-07-01T01:34:02;6.53;;;4.15;;
37609;SDS011;23457;51.966;8.230;2022-07-01T01:36:29;4.10;;;3.67;;
37609;SDS011;23457;51.966;8.230;2022-07-01T01:38:56;5.25;;;3.92;;
37609;SDS011;23457;51.966;8.230;2022-07-01T01:41:34;3.65;;;3.35;;
37609;SDS011;23457;51.966;8.230;2022-07-01T01:44:01;6.55;;;3.97;;
37609;SDS011;23457;51.966;8.230;2022-07-01T01:46:28;4.40;;;3.53;;
37609;SDS011;23457;51.966;8.230;2022-07-01T01:48:55;6.03;;;3.83;;
37609;SDS011;23457;51.966;8.230;2022-07-01T01:51:22;5.38;;;3.80;;
37609;SDS011;23457;51.966;8.230;2022-07-01T01:53:49;6.00;;;3.50;;
37609;SDS011;23457;51.966;8.230;2022-07-01T01:56:16;8.27;;;3.78;;
37609;SDS011;23457;51.966;8.230;2022-07-01T01:58:42;5.25;;;3.55;;
37609;SDS011;23457;51.966;8.230;2022-07-01T02:01:10;5.53;;;3.85;;
37609;SDS011;23457;51.966;8.230;2022-07-01T02:03:38;4.50;;;3.83;;
37609;SDS011;23457;51.966;8.230;2022-07-01T02:06:06;5.38;;;3.70;;
37609;SDS011;23457;51.966;8.230;2022-07-01T02:08:36;4.30;;;3.75;;
37609;SDS011;23457;51.966;8.230;2022-07-01T02:11:06;5.95;;;3.72;;
37609;SDS011;23457;51.966;8.230;2022-07-01T02:13:33;6.93;;;3.55;;
37609;SDS011;23457;51.966;8.230;2022-07-01T02:16:00;5.53;;;3.80;;
37609;SDS011;23457;51.966;8.230;2022-07-01T02:18:27;7.50;;;4.68;;
37609;SDS011;23457;51.966;8.230;2022-07-01T02:20:54;5.65;;;4.90;;
37609;SDS011;23457;51.966;8.230;2022-07-01T02:23:20;9.43;;;5.07;;
37609;SDS011;23457;51.966;8.230;2022-07-01T02:25:48;7.95;;;5.10;;
37609;SDS011;23457;51.966;8.230;2022-07-01T02:28:14;5.60;;;5.10;;
37609;SDS011;23457;51.966;8.230;2022-07-01T02:30:41;5.68;;;4.90;;
37609;SDS011;23457;51.966;8.230;2022-07-01T02:33:08;7.50;;;5.55;;
37609;SDS011;23457;51.966;8.230;2022-07-01T02:35:36;6.22;;;5.63;;
37609;SDS011;23457;51.966;8.230;2022-07-01T02:40:32;7.63;;;6.80;;
37609;SDS011;23457;51.966;8.230;2022-07-01T02:43:00;10.05;;;7.20;;
37609;SDS011;23457;51.966;8.230;2022-07-01T02:45:26;12.90;;;8.65;;
37609;SDS011;23457;51.966;8.230;2022-07-01T02:47:53;10.23;;;8.25;;
37609;SDS011;23457;51.966;8.230;2022-07-01T02:50:20;11.90;;;9.13;;
37609;SDS011;23457;51.966;8.230;2022-07-01T02:52:51;13.77;;;9.15;;
37609;SDS011;23457;51.966;8.230;2022-07-01T02:55:17;12.25;;;10.05;;
37609;SDS011;23457;51.966;8.230;2022-07-01T02:57:44;14.18;;;11.40;;
37609;SDS011;23457;51.966;8.230;2022-07-01T03:00:12;16.55;;;10.77;;
37609;SDS011;23457;51.966;8.230;2022-07-01T03:02:40;15.45;;;11.65;;
37609;SDS011;23457;51.966;8.230;2022-07-01T03:05:07;17.40;;;12.52;;
37609;SDS011;23457;51.966;8.230;2022-07-01T03:07:34;20.20;;;12.32;;
37609;SDS011;23457;51.966;8.230;2022-07-01T03:10:03;23.38;;;14.30;;
37609;SDS011;23457;51.966;8.230;2022-07-01T03:12:31;20.27;;;14.77;;
37609;SDS011;23457;51.966;8.230;2022-07-01T03:15:11;24.50;;;16.17;;
37609;SDS011;23457;51.966;8.230;2022-07-01T03:17:46;20.30;;;16.00;;
37609;SDS011;23457;51.966;8.230;2022-07-01T03:20:15;24.15;;;16.92;;
37609;SDS011;23457;51.966;8.230;2022-07-01T03:22:43;21.90;;;17.45;;
37609;SDS011;23457;51.966;8.230;2022-07-01T03:25:11;21.73;;;17.87;;
37609;SDS011;23457;51.966;8.230;2022-07-01T03:27:38;24.92;;;17.40;;
37609;SDS011;23457;51.966;8.230;2022-07-01T03:30:11;22.17;;;17.30;;
37609;SDS011;23457;51.966;8.230;2022-07-01T03:32:37;20.42;;;17.38;;
37609;SDS011;23457;51.966;8.230;2022-07-01T03:35:04;21.77;;;18.85;;
37609;SDS011;23457;51.966;8.230;2022-07-01T03:37:51;24.00;;;19.85;;
37609;SDS011;23457;51.966;8.230;2022-07-01T03:40:17;25.25;;;18.52;;
37609;SDS011;23457;51.966;8.230;2022-07-01T03:42:44;25.05;;;21.25;;
37609;SDS011;23457;51.966;8.230;2022-07-01T03:45:11;24.52;;;20.35;;
37609;SDS011;23457;51.966;8.230;2022-07-01T03:47:37;27.00;;;20.48;;
37609;SDS011;23457;51.966;8.230;2022-07-01T03:50:04;29.73;;;20.58;;
37609;SDS011;23457;51.966;8.230;2022-07-01T03:52:31;23.50;;;20.30;;
37609;SDS011;23457;51.966;8.230;2022-07-01T03:54:57;29.58;;;20.83;;
37609;SDS011;23457;51.966;8.230;2022-07-01T03:57:24;26.88;;;22.05;;
37609;SDS011;23457;51.966;8.230;2022-07-01T03:59:50;31.25;;;21.67;;
37609;SDS011;23457;51.966;8.230;2022-07-01T04:02:17;30.65;;;22.63;;
37609;SDS011;23457;51.966;8.230;2022-07-01T04:04:43;26.30;;;21.52;;
37609;SDS011;23457;51.966;8.230;2022-07-01T04:07:10;28.85;;;22.13;;
37609;SDS011;23457;51.966;8.230;2022-07-01T04:09:37;30.42;;;21.85;;
37609;SDS011;23457;51.966;8.230;2022-07-01T04:12:04;28.45;;;22.42;;
37609;SDS011;23457;51.966;8.230;2022-07-01T04:17:00;29.33;;;22.50;;
37609;SDS011;23457;51.966;8.230;2022-07-01T04:19:26;32.38;;;22.25;;
37609;SDS011;23457;51.966;8.230;2022-07-01T04:21:53;32.53;;;23.60;;
37609;SDS011;23457;51.966;8.230;2022-07-01T04:24:38;34.80;;;23.65;;
37609;SDS011;23457;51.966;8.230;2022-07-01T04:27:05;36.92;;;23.50;;
37609;SDS011;23457;51.966;8.230;2022-07-01T04:29:32;39.83;;;24.50;;
37609;SDS011;23457;51.966;8.230;2022-07-01T04:31:58;34.03;;;23.88;;
37609;SDS011;23457;51.966;8.230;2022-07-01T04:34:25;36.70;;;24.98;;
37609;SDS011;23457;51.966;8.230;2022-07-01T04:36:51;42.08;;;25.55;;
37609;SDS011;23457;51.966;8.230;2022-07-01T04:39:18;39.40;;;25.10;;
37609;SDS011;23457;51.966;8.230;2022-07-01T04:41:45;39.00;;;24.65;;
37609;SDS011;23457;51.966;8.230;2022-07-01T04:44:27;40.67;;;25.17;;
37609;SDS011;23457;51.966;8.230;2022-07-01T04:46:55;41.63;;;26.03;;
37609;SDS011;23457;51.966;8.230;2022-07-01T04:49:22;39.20;;;25.08;;
37609;SDS011;23457;51.966;8.230;2022-07-01T04:51:48;37.03;;;25.30;;
37609;SDS011;23457;51.966;8.230;2022-07-01T04:54:15;40.67;;;25.52;;
37609;SDS011;23457;51.966;8.230;2022-07-01T04:56:42;40.45;;;25.92;;
37609;SDS011;23457;51.966;8.230;2022-07-01T04:59:10;41.00;;;26.23;;
37609;SDS011;23457;51.966;8.230;2022-07-01T05:01:38;43.53;;;27.67;;
37609;SDS011;23457;51.966;8.230;2022-07-01T05:04:04;45.60;;;27.60;;
37609;SDS011;23457;51.966;8.230;2022-07-01T05:06:31;47.00;;;28.52;;
37609;SDS011;23457;51.966;8.230;2022-07-01T05:09:00;46.60;;;27.45;;
37609;SDS011;23457;51.966;8.230;2022-07-01T05:11:27;49.90;;;29.05;;
37609;SDS011;23457;51.966;8.230;2022-07-01T05:13:53;44.65;;;27.55;;
37609;SDS011;23457;51.966;8.230;2022-07-01T05:16:20;45.38;;;29.10;;
37609;SDS011;23457;51.966;8.230;2022-07-01T05:18:46;47.72;;;29.00;;
37609;SDS011;23457;51.966;8.230;2022-07-01T05:21:32;44.45;;;28.42;;
37609;SDS011;23457;51.966;8.230;2022-07-01T05:24:17;45.80;;;28.77;;
37609;SDS011;23457;51.966;8.230;2022-07-01T05:26:43;49.05;;;30.02;;
37609;SDS011;23457;51.966;8.230;2022-07-01T05:29:10;50.10;;;30.35;;
37609;SDS011;23457;51.966;8.230;2022-07-01T05:31:37;49.30;;;30.08;;
37609;SDS011;23457;51.966;8.230;2022-07-01T05:34:04;50.67;;;30.48;;
37609;SDS011;23457;51.966;8.230;2022-07-01T05:36:33;57.28;;;32.85;;
37609;SDS011;23457;51.966;8.230;2022-07-01T05:39:00;54.97;;;32.95;;
37609;SDS011;23457;51.966;8.230;2022-07-01T05:41:27;57.63;;;34.10;;
37609;SDS011;23457;51.966;8.230;2022-07-01T05:43:54;53.90;;;34.88;;
37609;SDS011;23457;51.966;8.230;2022-07-01T05:46:21;54.25;;;33.80;;
37609;SDS011;23457;51.966;8.230;2022-07-01T05:48:48;59.88;;;34.58;;
37609;SDS011;23457;51.966;8.230;2022-07-01T05:51:14;53.65;;;32.95;;
37609;SDS011;23457;51.966;8.230;2022-07-01T05:53:41;56.35;;;34.78;;
37609;SDS011;23457;51.966;8.230;2022-07-01T05:56:09;57.35;;;35.47;;
37609;SDS011;23457;51.966;8.230;2022-07-01T05:58:36;55.63;;;34.22;;
37609;SDS011;23457;51.966;8.230;2022-07-01T06:01:02;53.50;;;33.83;;
37609;SDS011;23457;51.966;8.230;2022-07-01T06:03:35;54.25;;;33.92;;
37609;SDS011;23457;51.966;8.230;2022-07-01T06:06:03;55.65;;;34.90;;
37609;SDS011;23457;51.966;8.230;2022-07-01T06:08:29;50.30;;;32.53;;
37609;SDS011;23457;51.966;8.230;2022-07-01T06:10:56;48.13;;;32.35;;
37609;SDS011;23457;51.966;8.230;2022-07-01T06:13:23;49.10;;;32.08;;
37609;SDS011;23457;51.966;8.230;2022-07-01T06:15:50;52.30;;;33.05;;
37609;SDS011;23457;51.966;8.230;2022-07-01T06:18:17;50.45;;;33.33;;
37609;SDS011;23457;51.966;8.230;2022-07-01T06:20:43;50.67;;;33.65;;
37609;SDS011;23457;51.966;8.230;2022-07-01T06:23:10;47.10;;;33.00;;
37609;SDS011;23457;51.966;8.230;2022-07-01T06:25:37;49.35;;;33.30;;
37609;SDS011;23457;51.966;8.230;2022-07-01T06:28:03;46.35;;;32.47;;
37609;SDS011;23457;51.966;8.230;2022-07-01T06:30:30;48.88;;;32.00;;
37609;SDS011;23457;51.966;8.230;2022-07-01T06:32:56;47.65;;;31.85;;
37609;SDS011;23457;51.966;8.230;2022-07-01T06:35:23;46.80;;;31.92;;
37609;SDS011;23457;51.966;8.230;2022-07-01T06:37:49;46.75;;;32.40;;
37609;SDS011;23457;51.966;8.230;2022-07-01T06:40:23;48.35;;;32.72;;
37609;SDS011;23457;51.966;8.230;2022-07-01T06:42:50;45.13;;;31.92;;
37609;SDS011;23457;51.966;8.230;2022-07-01T06:45:17;41.05;;;29.67;;
37609;SDS011;23457;51.966;8.230;2022-07-01T06:47:43;39.42;;;27.83;;
37609;SDS011;23457;51.966;8.230;2022-07-01T06:50:10;37.35;;;26.42;;
37609;SDS011;23457;51.966;8.230;2022-07-01T06:52:37;34.67;;;24.83;;
37609;SDS011;23457;51.966;8.230;2022-07-01T06:55:03;28.77;;;22.98;;
37609;SDS011;23457;51.966;8.230;2022-07-01T06:57:30;29.55;;;21.45;;
37609;SDS011;23457;51.966;8.230;2022-07-01T06:59:57;30.42;;;22.52;;
37609;SDS011;23457;51.966;8.230;2022-07-01T07:02:23;26.63;;;20.73;;
37609;SDS011;23457;51.966;8.230;2022-07-01T07:04:54;26.02;;;20.10;;
37609;SDS011;23457;51.966;8.230;2022-07-01T07:07:27;23.55;;;18.45;;
37609;SDS011;23457;51.966;8.230;2022-07-01T07:09:53;23.90;;;18.45;;
37609;SDS011;23457;51.966;8.230;2022-07-01T07:12:22;24.23;;;18.55;;
37609;SDS011;23457;51.966;8.230;2022-07-01T07:14:49;26.98;;;19.92;;
37609;SDS011;23457;51.966;8.230;2022-07-01T07:17:15;22.08;;;18.30;;
37609;SDS011;23457;51.966;8.230;2022-07-01T07:19:42;23.67;;;18.30;;
37609;SDS011;23457;51.966;8.230;2022-07-01T07:22:08;23.05;;;18.48;;
37609;SDS011;23457;51.966;8.230;2022-07-01T07:24:35;23.33;;;18.48;;
37609;SDS011;23457;51.966;8.230;2022-07-01T07:27:02;24.10;;;18.50;;
37609;SDS011;23457;51.966;8.230;2022-07-01T07:29:29;27.25;;;20.23;;
37609;SDS011;23457;51.966;8.230;2022-07-01T07:31:55;23.83;;;19.27;;
37609;SDS011;23457;51.966;8.230;2022-07-01T07:34:22;28.83;;;20.25;;
37609;SDS011;23457;51.966;8.230;2022-07-01T07:36:48;27.77;;;18.75;;
37609;SDS011;23457;51.966;8.230;2022-07-01T07:39:15;24.58;;;18.27;;
37609;SDS011;23457;51.966;8.230;2022-07-01T07:41:42;24.15;;;17.90;;
37609;SDS011;23457;51.966;8.230;2022-07-01T07:44:08;22.70;;;17.92;;
37609;SDS011;23457;51.966;8.230;2022-07-01T07:46:35;22.20;;;18.55;;
37609;SDS011;23457;51.966;8.230;2022-07-01T07:49:01;25.00;;;19.23;;
37609;SDS011;23457;51.966;8.230;2022-07-01T07:51:28;19.98;;;16.13;;
37609;SDS011;23457;51.966;8.230;2022-07-01T07:53:55;21.45;;;16.45;;
37609;SDS011;23457;51.966;8.230;2022-07-01T07:56:21;24.13;;;15.77;;
37609;SDS011;23457;51.966;8.230;2022-07-01T07:58:48;20.92;;;15.18;;
37609;SDS011;23457;51.966;8.230;2022-07-01T08:01:15;19.48;;;15.30;;
37609;SDS011;23457;51.966;8.230;2022-07-01T08:03:43;17.48;;;13.80;;
37609;SDS011;23457;51.966;8.230;2022-07-01T08:06:11;19.70;;;13.00;;
37609;SDS011;23457;51.966;8.230;2022-07-01T08:08:39;19.17;;;12.77;;
37609;SDS011;23457;51.966;8.230;2022-07-01T08:11:06;17.98;;;11.63;;
37609;SDS011;23457;51.966;8.230;2022-07-01T08:13:33;14.25;;;11.07;;
37609;SDS011;23457;51.966;8.230;2022-07-01T08:15:59;16.27;;;11.25;;
37609;SDS011;23457;51.966;8.230;2022-07-01T08:18:26;18.08;;;11.85;;
37609;SDS011;23457;51.966;8.230;2022-07-01T08:20:53;17.77;;;10.95;;
37609;SDS011;23457;51.966;8.230;2022-07-01T08:23:20;13.57;;;10.23;;
37609;SDS011;23457;51.966;8.230;2022-07-01T08:25:47;12.63;;;10.25;;
37609;SDS011;23457;51.966;8.230;2022-07-01T08:28:15;13.55;;;9.70;;
37609;SDS011;23457;51.966;8.230;2022-07-01T08:30:42;13.60;;;9.85;;
37609;SDS011;23457;51.966;8.230;2022-07-01T08:33:09;14.65;;;9.48;;
37609;SDS011;23457;51.966;8.230;2022-07-01T08:35:36;16.40;;;9.82;;
37609;SDS011;23457;51.966;8.230;2022-07-01T08:38:03;15.90;;;9.73;;
37609;SDS011;23457;51.966;8.230;2022-07-01T08:40:30;14.50;;;10.38;;
37609;SDS011;23457;51.966;8.230;2022-07-01T08:42:57;15.98;;;9.95;;
37609;SDS011;23457;51.966;8.230;2022-07-01T08:45:26;15.10;;;9.18;;
37609;SDS011;23457;51.966;8.230;2022-07-01T08:47:54;17.92;;;9.57;;
37609;SDS011;23457;51.966;8.230;2022-07-01T08:50:28;16.90;;;9.13;;
37609;SDS011;23457;51.966;8.230;2022-07-01T08:52:57;16.08;;;8.85;;
37609;SDS011;23457;51.966;8.230;2022-07-01T08:55:24;14.32;;;9.57;;
37609;SDS011;23457;51.966;8.230;2022-07-01T08:57:52;13.38;;;9.38;;
37609;SDS011;23457;51.966;8.230;2022-07-01T09:00:19;12.05;;;9.43;;
37609;SDS011;23457;51.966;8.230;2022-07-01T09:05:30;11.38;;;8.50;;
37609;SDS011;23457;51.966;8.230;2022-07-01T09:07:58;12.55;;;8.73;;
37609;SDS011;23457;51.966;8.230;2022-07-01T09:12:59;10.90;;;8.45;;
37609;SDS011;23457;51.966;8.230;2022-07-01T09:15:31;12.95;;;8.55;;
37609;SDS011;23457;51.966;8.230;2022-07-01T09:18:11;15.00;;;8.93;;
37609;SDS011;23457;51.966;8.230;2022-07-01T09:20:40;11.88;;;7.82;;
37609;SDS011;23457;51.966;8.230;2022-07-01T09:23:09;12.57;;;8.20;;
37609;SDS011;23457;51.966;8.230;2022-07-01T09:25:38;13.95;;;8.38;;
37609;SDS011;23457;51.966;8.230;2022-07-01T09:28:23;10.77;;;8.07;;
37609;SDS011;23457;51.966;8.230;2022-07-01T09:30:55;11.32;;;7.57;;
37609;SDS011;23457;51.966;8.230;2022-07-01T09:33:27;10.95;;;7.55;;
37609;SDS011;23457;51.966;8.230;2022-07-01T09:35:55;13.57;;;7.80;;
37609;SDS011;23457;51.966;8.230;2022-07-01T09:38:23;13.57;;;7.82;;
37609;SDS011;23457;51.966;8.230;2022-07-01T09:41:02;10.65;;;7.22;;
37609;SDS011;23457;51.966;8.230;2022-07-01T09:43:31;10.80;;;8.68;;
37609;SDS011;23457;51.966;8.230;2022-07-01T09:46:09;11.52;;;6.95;;
37609;SDS011;23457;51.966;8.230;2022-07-01T09:51:04;10.32;;;4.57;;
37609;SDS011;23457;51.966;8.230;2022-07-01T09:53:39;6.20;;;4.70;;
37609;SDS011;23457;51.966;8.230;2022-07-01T09:56:06;6.82;;;4.40;;
37609;SDS011;23457;51.966;8.230;2022-07-01T09:58:33;5.90;;;4.53;;
37609;SDS011;23457;51.966;8.230;2022-07-01T10:01:01;6.68;;;4.47;;
37609;SDS011;23457;51.966;8.230;2022-07-01T10:03:29;12.55;;;5.20;;
37609;SDS011;23457;51.966;8.230;2022-07-01T10:11:48;7.13;;;4.68;;
37609;SDS011;23457;51.966;8.230;2022-07-01T10:14:37;10.23;;;5.40;;
37609;SDS011;23457;51.966;8.230;2022-07-01T10:19:33;8.95;;;6.10;;
37609;SDS011;23457;51.966;8.230;2022-07-01T10:22:23;8.35;;;6.15;;
37609;SDS011;23457;51.966;8.230;2022-07-01T10:24:53;7.70;;;6.57;;
37609;SDS011;23457;51.966;8.230;2022-07-01T10:27:21;9.05;;;7.00;;
37609;SDS011;23457;51.966;8.230;2022-07-01T10:29:49;7.13;;;6.22;;
37609;SDS011;23457;51.966;8.230;2022-07-01T10:32:41;11.48;;;6.05;;
37609;SDS011;23457;51.966;8.230;2022-07-01T10:35:36;13.32;;;6.93;;
37609;SDS011;23457;51.966;8.230;2022-07-01T10:38:03;10.43;;;6.10;;
37609;SDS011;23457;51.966;8.230;2022-07-01T10:40:44;9.43;;;6.13;;
37609;SDS011;23457;51.966;8.230;2022-07-01T10:43:31;7.65;;;6.10;;
37609;SDS011;23457;51.966;8.230;2022-07-01T10:45:59;8.38;;;6.50;;
37609;SDS011;23457;51.966;8.230;2022-07-01T10:48:29;11.57;;;7.28;;
37609;SDS011;23457;51.966;8.230;2022-07-01T10:50:58;7.55;;;6.68;;
37609;SDS011;23457;51.966;8.230;2022-07-01T10:53:25;8.02;;;7.22;;
37609;SDS011;23457;51.966;8.230;2022-07-01T10:56:15;9.90;;;8.05;;
37609;SDS011;23457;51.966;8.230;2022-07-01T10:58:43;9.00;;;7.97;;
37609;SDS011;23457;51.966;8.230;2022-07-01T11:01:10;11.75;;;8.50;;
37609;SDS011;23457;51.966;8.230;2022-07-01T11:03:37;12.25;;;8.80;;
37609;SDS011;23457;51.966;8.230;2022-07-01T11:06:06;9.43;;;7.85;;
37609;SDS011;23457;51.966;8.230;2022-07-01T11:08:33;12.55;;;8.43;;
37609;SDS011;23457;51.966;8.230;2022-07-01T11:11:00;12.73;;;6.70;;
37609;SDS011;23457;51.966;8.230;2022-07-01T11:15:56;16.58;;;4.93;;
37609;SDS011;23457;51.966;8.230;2022-07-01T11:18:24;6.50;;;4.25;;
37609;SDS011;23457;51.966;8.230;2022-07-01T11:20:51;7.50;;;4.53;;
37609;SDS011;23457;51.966;8.230;2022-07-01T11:23:20;5.78;;;4.47;;
37609;SDS011;23457;51.966;8.230;2022-07-01T11:28:13;6.47;;;4.38;;
37609;SDS011;23457;51.966;8.230;2022-07-01T11:30:40;8.70;;;5.80;;
37609;SDS011;23457;51.966;8.230;2022-07-01T11:33:07;4.55;;;3.80;;
37609;SDS011;23457;51.966;8.230;2022-07-01T11:35:35;7.10;;;4.25;;
37609;SDS011;23457;51.966;8.230;2022-07-01T11:38:21;6.60;;;4.60;;
37609;SDS011;23457;51.966;8.230;2022-07-01T11:41:17;6.82;;;4.47;;
37609;SDS011;23457;51.966;8.230;2022-07-01T11:43:46;4.82;;;4.30;;
37609;SDS011;23457;51.966;8.230;2022-07-01T11:46:13;4.22;;;3.75;;
37609;SDS011;23457;51.966;8.230;2022-07-01T11:48:41;4.80;;;3.80;;
37609;SDS011;23457;51.966;8.230;2022-07-01T11:51:10;6.13;;;3.97;;
37609;SDS011;23457;51.966;8.230;2022-07-01T11:53:43;5.90;;;4.32;;
37609;SDS011;23457;51.966;8.230;2022-07-01T11:56:20;5.28;;;4.22;;
37609;SDS011;23457;51.966;8.230;2022-07-01T11:58:58;4.57;;;3.45;;
37609;SDS011;23457;51.966;8.230;2022-07-01T12:01:28;5.95;;;3.50;;
37609;SDS011;23457;51.966;8.230;2022-07-01T12:03:59;7.40;;;3.20;;
37609;SDS011;23457;51.966;8.230;2022-07-01T12:06:29;5.65;;;2.30;;
37609;SDS011;23457;51.966;8.230;2022-07-01T12:08:56;3.92;;;2.20;;
37609;SDS011;23457;51.966;8.230;2022-07-01T12:11:24;4.85;;;2.17;;
37609;SDS011;23457;51.966;8.230;2022-07-01T12:13:52;2.97;;;2.13;;
37609;SDS011;23457;51.966;8.230;2022-07-01T12:16:20;7.15;;;2.10;;
37609;SDS011;23457;51.966;8.230;2022-07-01T12:18:50;2.67;;;1.50;;
37609;SDS011;23457;51.966;8.230;2022-07-01T12:21:26;3.42;;;1.70;;
37609;SDS011;23457;51.966;8.230;2022-07-01T12:26:48;4.47;;;1.90;;
37609;SDS011;23457;51.966;8.230;2022-07-01T12:29:18;3.08;;;1.55;;
37609;SDS011;23457;51.966;8.230;2022-07-01T12:31:57;2.80;;;1.63;;
37609;SDS011;23457;51.966;8.230;2022-07-01T12:34:42;3.30;;;2.10;;
37609;SDS011;23457;51.966;8.230;2022-07-01T12:37:20;3.75;;;1.70;;
37609;SDS011;23457;51.966;8.230;2022-07-01T12:39:53;2.30;;;1.80;;
37609;SDS011;23457;51.966;8.230;2022-07-01T12:44:52;4.05;;;2.22;;
37609;SDS011;23457;51.966;8.230;2022-07-01T12:47:24;2.78;;;1.63;;
37609;SDS011;23457;51.966;8.230;2022-07-01T12:50:09;3.80;;;2.00;;
37609;SDS011;23457;51.966;8.230;2022-07-01T12:52:36;4.47;;;1.60;;
37609;SDS011;23457;51.966;8.230;2022-07-01T12:55:15;2.53;;;1.52;;
37609;SDS011;23457;51.966;8.230;2022-07-01T12:57:50;3.30;;;1.20;;
37609;SDS011;23457;51.966;8.230;2022-07-01T13:00:19;4.15;;;1.77;;
37609;SDS011;23457;51.966;8.230;2022-07-01T13:02:51;2.92;;;1.83;;
37609;SDS011;23457;51.966;8.230;2022-07-01T13:05:19;2.65;;;1.30;;
37609;SDS011;23457;51.966;8.230;2022-07-01T13:07:45;6.53;;;1.88;;
37609;SDS011;23457;51.966;8.230;2022-07-01T13:10:13;4.38;;;1.65;;
37609;SDS011;23457;51.966;8.230;2022-07-01T13:12:41;7.60;;;1.80;;
37609;SDS011;23457;51.966;8.230;2022-07-01T13:15:08;5.20;;;2.03;;
37609;SDS011;23457;51.966;8.230;2022-07-01T13:17:35;2.25;;;1.67;;
37609;SDS011;23457;51.966;8.230;2022-07-01T13:20:03;4.30;;;2.20;;
37609;SDS011;23457;51.966;8.230;2022-07-01T13:22:31;4.10;;;1.70;;
37609;SDS011;23457;51.966;8.230;2022-07-01T13:24:58;5.10;;;2.20;;
37609;SDS011;23457;51.966;8.230;2022-07-01T13:27:24;3.80;;;1.75;;
37609;SDS011;23457;51.966;8.230;2022-07-01T13:29:51;2.88;;;1.40;;
37609;SDS011;23457;51.966;8.230;2022-07-01T13:32:18;1.92;;;1.30;;
37609;SDS011;23457;51.966;8.230;2022-07-01T13:34:45;9.77;;;1.65;;
37609;SDS011;23457;51.966;8.230;2022-07-01T13:37:12;2.50;;;1.30;;
37609;SDS011;23457;51.966;8.230;2022-07-01T13:39:39;2.60;;;1.30;;
37609;SDS011;23457;51.966;8.230;2022-07-01T13:42:07;3.85;;;1.00;;
37609;SDS011;23457;51.966;8.230;2022-07-01T13:44:34;1.65;;;1.20;;
37609;SDS011;23457;51.966;8.230;2022-07-01T13:47:00;2.67;;;0.95;;
37609;SDS011;23457;51.966;8.230;2022-07-01T13:49:28;1.85;;;0.90;;
37609;SDS011;23457;51.966;8.230;2022-07-01T13:51:55;3.10;;;0.93;;
37609;SDS011;23457;51.966;8.230;2022-07-01T13:54:21;4.53;;;1.00;;
37609;SDS011;23457;51.966;8.230;2022-07-01T13:56:48;1.85;;;0.80;;
37609;SDS011;23457;51.966;8.230;2022-07-01T13:59:15;2.35;;;1.10;;
37609;SDS011;23457;51.966;8.230;2022-07-01T14:01:41;1.83;;;0.93;;
37609;SDS011;23457;51.966;8.230;2022-07-01T14:04:09;3.28;;;0.90;;
37609;SDS011;23457;51.966;8.230;2022-07-01T14:06:36;3.08;;;1.00;;
37609;SDS011;23457;51.966;8.230;2022-07-01T14:09:03;2.22;;;0.95;;
37609;SDS011;23457;51.966;8.230;2022-07-01T14:11:30;1.38;;;0.63;;
37609;SDS011;23457;51.966;8.230;2022-07-01T14:13:57;4.05;;;0.80;;
37609;SDS011;23457;51.966;8.230;2022-07-01T14:16:23;2.75;;;0.75;;
37609;SDS011;23457;51.966;8.230;2022-07-01T14:18:50;3.80;;;1.10;;
37609;SDS011;23457;51.966;8.230;2022-07-01T14:21:17;2.80;;;0.90;;
37609;SDS011;23457;51.966;8.230;2022-07-01T14:23:45;2.33;;;0.90;;
37609;SDS011;23457;51.966;8.230;2022-07-01T14:26:11;3.25;;;1.00;;
37609;SDS011;23457;51.966;8.230;2022-07-01T14:28:38;2.22;;;0.80;;
37609;SDS011;23457;51.966;8.230;2022-07-01T14:31:08;5.22;;;0.95;;
37609;SDS011;23457;51.966;8.230;2022-07-01T14:33:35;2.20;;;0.90;;
37609;SDS011;23457;51.966;8.230;2022-07-01T14:36:02;4.85;;;0.60;;
37609;SDS011;23457;51.966;8.230;2022-07-01T14:38:29;2.00;;;0.70;;
37609;SDS011;23457;51.966;8.230;2022-07-01T14:40:56;2.75;;;0.80;;
37609;SDS011;23457;51.966;8.230;2022-07-01T14:43:23;2.83;;;0.50;;
37609;SDS011;23457;51.966;8.230;2022-07-01T14:45:49;3.60;;;0.63;;
37609;SDS011;23457;51.966;8.230;2022-07-01T14:48:17;1.20;;;0.57;;
37609;SDS011;23457;51.966;8.230;2022-07-01T14:50:44;1.60;;;0.57;;
37609;SDS011;23457;51.966;8.230;2022-07-01T14:53:10;4.13;;;0.80;;
37609;SDS011;23457;51.966;8.230;2022-07-01T14:55:38;3.80;;;0.80;;
37609;SDS011;23457;51.966;8.230;2022-07-01T14:58:05;2.67;;;0.80;;
37609;SDS011;23457;51.966;8.230;2022-07-01T15:00:32;2.55;;;0.63;;
37609;SDS011;23457;51.966;8.230;2022-07-01T15:03:03;1.13;;;0.70;;
37609;SDS011;23457;51.966;8.230;2022-07-01T15:05:30;2.38;;;0.70;;
37609;SDS011;23457;51.966;8.230;2022-07-01T15:07:58;2.17;;;0.60;;
37609;SDS011;23457;51.966;8.230;2022-07-01T15:10:25;2.72;;;0.52;;
37609;SDS011;23457;51.966;8.230;2022-07-01T15:12:51;1.17;;;0.52;;
37609;SDS011;23457;51.966;8.230;2022-07-01T15:15:18;2.20;;;0.70;;